createdAt,value
2022-07-26T00:01:52.117Z,100258.38
2022-07-26T00:04:19.579Z,100250.03
2022-07-26T00:06:46.928Z,100254.75
2022-07-26T00:09:14.564Z,100257.41
2022-07-26T00:11:42.205Z,100256.41
2022-07-26T00:14:09.643Z,100266.03
2022-07-26T00:16:40.537Z,100273.13
2022-07-26T00:19:08.325Z,100278.56
2022-07-26T00:21:37.238Z,100289.03
2022-07-26T00:24:08.563Z,100300.69
2022-07-26T00:26:36.255Z,100295.84
2022-07-26T00:29:06.777Z,100294.50
2022-07-26T00:31:34.433Z,100296.88
2022-07-26T00:34:01.833Z,100311.47
2022-07-26T00:36:29.789Z,100309.50
2022-07-26T00:38:57.163Z,100318.53
2022-07-26T00:41:24.489Z,100310.47
2022-07-26T00:43:59.857Z,100315.75
2022-07-26T00:46:27.835Z,100312.72
2022-07-26T00:48:55.384Z,100319.56
2022-07-26T00:51:23.442Z,100322.66
2022-07-26T00:53:53.296Z,100317.31
2022-07-26T00:56:21.822Z,100315.28
2022-07-26T00:58:49.182Z,100311.97
2022-07-26T01:01:16.755Z,100313.84
2022-07-26T01:03:44.487Z,100311.19
2022-07-26T01:06:12.071Z,100302.34
2022-07-26T01:08:39.434Z,100294.84
2022-07-26T01:11:07.613Z,100291.59
2022-07-26T01:13:35.662Z,100297.63
2022-07-26T01:16:03.811Z,100292.72
2022-07-26T01:18:31.188Z,100291.59
2022-07-26T01:21:00.588Z,100292.41
2022-07-26T01:23:28.250Z,100281.06
2022-07-26T01:25:56.653Z,100286.09
2022-07-26T01:28:24.007Z,100290.13
2022-07-26T01:30:51.654Z,100282.09
2022-07-26T01:33:19.100Z,100285.25
2022-07-26T01:35:46.500Z,100294.38
2022-07-26T01:38:13.993Z,100291.00
2022-07-26T01:40:41.263Z,100287.34
2022-07-26T01:43:08.595Z,100294.56
2022-07-26T01:45:35.958Z,100293.50
2022-07-26T01:48:03.468Z,100291.75
2022-07-26T01:50:30.801Z,100289.53
2022-07-26T01:52:58.164Z,100281.69
2022-07-26T01:55:27.288Z,100283.47
2022-07-26T01:57:55.011Z,100271.53
2022-07-26T02:00:22.315Z,100267.06
2022-07-26T02:02:49.765Z,100272.53
2022-07-26T02:05:17.201Z,100274.69
2022-07-26T02:07:44.832Z,100278.69
2022-07-26T02:10:14.529Z,100279.75
2022-07-26T02:12:42.415Z,100273.03
2022-07-26T02:15:11.304Z,100275.69
2022-07-26T02:17:38.672Z,100269.69
2022-07-26T02:20:07.282Z,100268.91
2022-07-26T02:22:35.716Z,100279.16
2022-07-26T02:25:05.501Z,100278.38
2022-07-26T02:27:33.282Z,100286.75
2022-07-26T02:30:00.675Z,100281.72
2022-07-26T02:32:28.094Z,100285.09
2022-07-26T02:34:55.479Z,100275.28
2022-07-26T02:37:22.783Z,100268.66
2022-07-26T02:39:50.098Z,100274.06
2022-07-26T02:42:17.390Z,100273.34
2022-07-26T02:44:44.792Z,100278.53
2022-07-26T02:47:12.691Z,100276.66
2022-07-26T02:49:40.125Z,100272.31
2022-07-26T02:52:07.472Z,100278.38
2022-07-26T02:54:34.810Z,100273.25
2022-07-26T02:57:02.249Z,100273.94
2022-07-26T02:59:29.719Z,100271.94
2022-07-26T03:01:57.119Z,100275.78
2022-07-26T03:04:24.597Z,100275.06
2022-07-26T03:06:51.941Z,100272.72
2022-07-26T03:09:19.223Z,100282.16
2022-07-26T03:11:46.726Z,100276.81
2022-07-26T03:14:14.058Z,100275.94
2022-07-26T03:16:41.418Z,100263.94
2022-07-26T03:19:08.731Z,100269.81
2022-07-26T03:21:36.292Z,100258.66
2022-07-26T03:24:03.723Z,100264.81
2022-07-26T03:26:31.063Z,100265.06
2022-07-26T03:28:58.456Z,100264.91
2022-07-26T03:31:25.882Z,100269.31
2022-07-26T03:33:53.280Z,100263.91
2022-07-26T03:36:20.562Z,100263.59
2022-07-26T03:38:47.872Z,100272.41
2022-07-26T03:41:15.210Z,100265.06
2022-07-26T03:43:44.274Z,100262.41
2022-07-26T03:46:11.766Z,100273.91
2022-07-26T03:48:39.246Z,100272.81
2022-07-26T03:51:06.850Z,100269.00
2022-07-26T03:53:34.607Z,100273.09
2022-07-26T03:56:21.209Z,100263.59
2022-07-26T03:58:48.528Z,100273.09
2022-07-26T04:01:15.965Z,100275.19
2022-07-26T04:03:47.402Z,100274.16
2022-07-26T04:06:15.227Z,100273.47
2022-07-26T04:08:43.141Z,100268.16
2022-07-26T04:11:10.565Z,100270.22
2022-07-26T04:13:37.928Z,100271.28
2022-07-26T04:16:06.341Z,100274.41
2022-07-26T04:18:33.845Z,100278.06
2022-07-26T04:21:01.187Z,100269.97
2022-07-26T04:23:28.500Z,100274.25
2022-07-26T04:25:55.970Z,100273.03
2022-07-26T04:28:24.419Z,100267.06
2022-07-26T04:30:51.836Z,100269.91
2022-07-26T04:33:19.179Z,100276.84
2022-07-26T04:35:46.579Z,100282.97
2022-07-26T04:38:13.923Z,100278.00
2022-07-26T04:40:41.273Z,100288.75
2022-07-26T04:43:10.036Z,100288.09
2022-07-26T04:45:44.685Z,100287.59
2022-07-26T04:48:15.510Z,100292.09
2022-07-26T04:50:43.438Z,100289.16
2022-07-26T04:53:13.554Z,100290.94
2022-07-26T04:55:41.726Z,100290.81
2022-07-26T04:58:09.915Z,100289.38
2022-07-26T05:00:56.797Z,100288.81
2022-07-26T05:03:25.438Z,100287.59
2022-07-26T05:05:53.002Z,100288.06
2022-07-26T05:08:20.425Z,100292.97
2022-07-26T05:10:55.600Z,100286.72
2022-07-26T05:13:30.109Z,100287.19
2022-07-26T05:15:59.607Z,100283.31
2022-07-26T05:18:29.436Z,100286.78
2022-07-26T05:20:59.119Z,100289.72
2022-07-26T05:23:26.423Z,100280.88
2022-07-26T05:25:53.956Z,100282.09
2022-07-26T05:28:21.319Z,100288.38
2022-07-26T05:30:48.655Z,100283.78
2022-07-26T05:33:16.682Z,100278.53
2022-07-26T05:35:44.233Z,100279.63
2022-07-26T05:38:11.592Z,100287.22
2022-07-26T05:40:38.914Z,100287.59
2022-07-26T05:43:06.379Z,100288.47
2022-07-26T05:45:33.758Z,100291.69
2022-07-26T05:48:01.164Z,100288.47
2022-07-26T05:50:28.748Z,100291.56
2022-07-26T05:52:56.110Z,100293.38
2022-07-26T05:55:23.474Z,100293.34
2022-07-26T05:57:50.815Z,100295.31
2022-07-26T06:00:19.204Z,100296.59
2022-07-26T06:02:46.577Z,100291.84
2022-07-26T06:05:15.786Z,100294.75
2022-07-26T06:07:43.194Z,100292.53
2022-07-26T06:10:10.531Z,100297.28
2022-07-26T06:12:39.809Z,100302.66
2022-07-26T06:15:15.452Z,100295.59
2022-07-26T06:17:43.428Z,100296.59
2022-07-26T06:20:11.226Z,100301.41
2022-07-26T06:22:38.637Z,100297.13
2022-07-26T06:25:06.784Z,100301.06
2022-07-26T06:27:34.242Z,100302.19
2022-07-26T06:30:01.763Z,100292.09
2022-07-26T06:32:29.052Z,100299.22
2022-07-26T06:34:56.545Z,100298.28
2022-07-26T06:37:23.854Z,100298.00
2022-07-26T06:39:51.140Z,100297.22
2022-07-26T06:42:18.478Z,100300.44
2022-07-26T06:44:46.470Z,100294.88
2022-07-26T06:47:13.810Z,100302.28
2022-07-26T06:49:41.346Z,100295.66
2022-07-26T06:52:08.693Z,100295.78
2022-07-26T06:54:36.659Z,100297.66
2022-07-26T06:57:04.059Z,100294.41
2022-07-26T06:59:31.693Z,100291.44
2022-07-26T07:02:00.641Z,100295.47
2022-07-26T07:04:33.076Z,100292.22
2022-07-26T07:07:06.092Z,100299.56
2022-07-26T07:09:34.141Z,100290.06
2022-07-26T07:12:08.450Z,100294.88
2022-07-26T07:14:39.113Z,100291.66
2022-07-26T07:17:12.857Z,100292.88
2022-07-26T07:19:41.667Z,100293.31
2022-07-26T07:22:11.876Z,100293.38
2022-07-26T07:24:40.219Z,100298.53
2022-07-26T07:27:08.142Z,100287.44
2022-07-26T07:29:41.422Z,100290.72
2022-07-26T07:32:15.951Z,100289.06
2022-07-26T07:34:49.986Z,100280.78
2022-07-26T07:37:20.012Z,100280.22
2022-07-26T07:39:49.945Z,100281.44
2022-07-26T07:42:19.450Z,100278.34
2022-07-26T07:44:47.079Z,100275.63
2022-07-26T07:47:14.727Z,100280.19
2022-07-26T07:49:42.108Z,100274.66
2022-07-26T07:52:09.529Z,100271.16
2022-07-26T07:54:36.886Z,100270.25
2022-07-26T07:57:05.879Z,100274.56
2022-07-26T07:59:33.214Z,100276.88
2022-07-26T08:02:06.763Z,100273.38
2022-07-26T08:04:34.193Z,100273.28
2022-07-26T08:07:01.580Z,100278.94
2022-07-26T08:09:29.036Z,100269.31
2022-07-26T08:11:56.403Z,100267.31
2022-07-26T08:14:24.267Z,100263.03
2022-07-26T08:16:52.464Z,100265.66
2022-07-26T08:19:20.179Z,100266.22
2022-07-26T08:21:49.998Z,100261.44
2022-07-26T08:24:17.711Z,100268.22
2022-07-26T08:26:45.153Z,100262.91
2022-07-26T08:29:13.028Z,100272.25
2022-07-26T08:31:40.689Z,100261.94
2022-07-26T08:34:08.056Z,100262.72
2022-07-26T08:36:35.410Z,100258.69
2022-07-26T08:39:03.842Z,100257.28
2022-07-26T08:41:31.749Z,100260.69
2022-07-26T08:44:10.050Z,100259.47
2022-07-26T08:46:39.546Z,100259.66
2022-07-26T08:49:08.470Z,100262.72
2022-07-26T08:51:40.881Z,100257.50
2022-07-26T08:54:08.265Z,100259.53
2022-07-26T08:56:37.606Z,100262.06
2022-07-26T08:59:20.636Z,100256.56
2022-07-26T09:01:58.652Z,100262.88
2022-07-26T09:04:32.362Z,100260.78
2022-07-26T09:07:05.053Z,100268.25
2022-07-26T09:09:34.653Z,100266.91
2022-07-26T09:12:17.317Z,100263.09
2022-07-26T09:14:49.350Z,100266.97
2022-07-26T09:17:18.600Z,100267.91
2022-07-26T09:19:46.739Z,100270.13
2022-07-26T09:22:17.167Z,100257.69
2022-07-26T09:24:46.731Z,100268.91
2022-07-26T09:27:18.284Z,100272.63
2022-07-26T09:29:49.182Z,100263.41
2022-07-26T09:32:22.902Z,100268.44
2022-07-26T09:34:59.097Z,100264.72
2022-07-26T09:37:37.416Z,100262.16
2022-07-26T09:40:13.685Z,100267.94
2022-07-26T09:43:02.395Z,100273.25
2022-07-26T09:45:31.951Z,100267.66
2022-07-26T09:48:01.712Z,100265.94
2022-07-26T09:50:32.233Z,100268.53
2022-07-26T09:53:08.484Z,100272.06
2022-07-26T09:55:45.221Z,100269.81
2022-07-26T09:58:14.725Z,100272.78
2022-07-26T10:00:43.632Z,100278.63
2022-07-26T10:03:11.593Z,100274.41
2022-07-26T10:05:39.181Z,100279.03
2022-07-26T10:08:07.883Z,100282.72
2022-07-26T10:10:58.590Z,100280.75
2022-07-26T10:13:27.719Z,100280.44
2022-07-26T10:15:56.720Z,100283.06
2022-07-26T10:18:38.062Z,100274.81
2022-07-26T10:21:25.886Z,100269.19
2022-07-26T10:23:58.821Z,100275.13
2022-07-26T10:26:31.947Z,100279.47
2022-07-26T10:29:17.382Z,100273.53
2022-07-26T10:31:54.429Z,100269.97
2022-07-26T10:34:48.311Z,100279.97
2022-07-26T10:37:27.583Z,100281.50
2022-07-26T10:40:22.529Z,100285.09
2022-07-26T10:42:49.922Z,100281.88
2022-07-26T10:45:20.843Z,100290.06
2022-07-26T10:48:09.575Z,100285.88
2022-07-26T10:50:41.265Z,100278.72
2022-07-26T10:53:17.827Z,100279.47
2022-07-26T10:55:56.343Z,100289.50
2022-07-26T10:58:26.211Z,100286.13
2022-07-26T11:01:01.363Z,100281.03
2022-07-26T11:03:39.625Z,100274.31
2022-07-26T11:06:15.287Z,100275.88
2022-07-26T11:08:48.194Z,100279.75
2022-07-26T11:11:31.454Z,100279.75
2022-07-26T11:14:10.889Z,100279.75
2022-07-26T11:16:44.875Z,100291.81
2022-07-26T11:19:17.878Z,100273.00
2022-07-26T11:21:46.687Z,100265.16
2022-07-26T11:24:14.642Z,100268.50
2022-07-26T11:26:44.587Z,100266.56
2022-07-26T11:29:16.922Z,100264.50
2022-07-26T11:31:51.933Z,100260.94
2022-07-26T11:34:33.113Z,100270.16
2022-07-26T11:37:03.197Z,100272.66
2022-07-26T11:39:33.181Z,100268.09
2022-07-26T11:42:04.978Z,100259.38
2022-07-26T11:44:33.116Z,100254.44
2022-07-26T11:47:10.138Z,100261.41
2022-07-26T11:50:11.687Z,100257.03
2022-07-26T11:52:30.193Z,100253.16
2022-07-26T11:54:57.597Z,100256.78
2022-07-26T11:57:29.941Z,100250.34
2022-07-26T11:59:58.843Z,100256.75
2022-07-26T12:02:27.970Z,100255.69
2022-07-26T12:05:27.789Z,100268.22
2022-07-26T12:08:02.782Z,100256.53
2022-07-26T12:10:30.400Z,100266.03
2022-07-26T12:13:14.133Z,100247.50
2022-07-26T12:15:52.691Z,100245.22
2022-07-26T12:18:31.260Z,100243.63
2022-07-26T12:21:08.853Z,100240.28
2022-07-26T12:23:54.704Z,100246.19
2022-07-26T12:26:24.768Z,100239.72
2022-07-26T12:28:54.466Z,100233.28
2022-07-26T12:31:31.650Z,100229.47
2022-07-26T12:34:22.200Z,100230.22
2022-07-26T12:36:49.775Z,100217.59
2022-07-26T12:39:23.188Z,100221.75
2022-07-26T12:41:50.815Z,100221.22
2022-07-26T12:44:18.203Z,100218.31
2022-07-26T12:46:45.700Z,100220.13
2022-07-26T12:49:13.346Z,100208.84
2022-07-26T12:51:41.367Z,100208.84
2022-07-26T12:54:09.146Z,100207.75
2022-07-26T12:56:36.712Z,100208.06
2022-07-26T12:59:04.099Z,100203.44
2022-07-26T13:01:32.138Z,100201.38
2022-07-26T13:04:00.069Z,100211.13
2022-07-26T13:06:27.457Z,100199.53
2022-07-26T13:08:56.407Z,100201.03
2022-07-26T13:11:23.920Z,100200.44
2022-07-26T13:13:51.340Z,100204.72
2022-07-26T13:16:18.759Z,100210.13
2022-07-26T13:18:46.690Z,100212.16
2022-07-26T13:21:14.352Z,100213.94
2022-07-26T13:23:41.693Z,100223.00
2022-07-26T13:26:09.207Z,100218.38
2022-07-26T13:28:37.744Z,100214.25
2022-07-26T13:31:05.496Z,100207.50
2022-07-26T13:33:33.277Z,100198.47
2022-07-26T13:36:00.664Z,100191.03
2022-07-26T13:38:28.912Z,100202.59
2022-07-26T13:40:58.371Z,100197.75
2022-07-26T13:43:26.056Z,100193.59
2022-07-26T13:45:53.429Z,100194.38
2022-07-26T13:48:20.918Z,100190.03
2022-07-26T13:50:48.917Z,100190.28
2022-07-26T13:53:16.418Z,100181.00
2022-07-26T13:55:43.832Z,100185.88
2022-07-26T13:58:11.588Z,100179.72
2022-07-26T14:00:40.484Z,100175.63
2022-07-26T14:03:08.239Z,100175.19
2022-07-26T14:05:35.734Z,100177.75
2022-07-26T14:08:03.334Z,100176.56
2022-07-26T14:10:30.789Z,100177.09
2022-07-26T14:12:58.918Z,100168.59
2022-07-26T14:15:27.220Z,100178.63
2022-07-26T14:17:54.744Z,100192.09
2022-07-26T14:20:22.676Z,100193.91
2022-07-26T14:22:56.432Z,100185.56
2022-07-26T14:25:25.995Z,100183.50
2022-07-26T14:27:54.941Z,100193.81
2022-07-26T14:30:22.687Z,100186.72
2022-07-26T14:32:50.267Z,100189.03
2022-07-26T14:35:17.722Z,100181.88
2022-07-26T14:37:46.016Z,100196.38
2022-07-26T14:40:17.960Z,100186.81
2022-07-26T14:42:46.257Z,100183.19
2022-07-26T14:45:14.428Z,100169.88
2022-07-26T14:47:42.525Z,100174.50
2022-07-26T14:50:11.770Z,100175.66
2022-07-26T14:52:41.237Z,100173.31
2022-07-26T14:55:09.771Z,100174.63
2022-07-26T14:57:39.881Z,100179.28
2022-07-26T15:00:10.269Z,100178.22
2022-07-26T15:02:42.461Z,100182.97
2022-07-26T15:05:11.528Z,100173.00
2022-07-26T15:07:41.015Z,100191.31
2022-07-26T15:10:10.527Z,100188.47
2022-07-26T15:12:38.915Z,100174.22
2022-07-26T15:15:07.739Z,100178.53
2022-07-26T15:17:35.850Z,100187.03
2022-07-26T15:20:05.228Z,100185.44
2022-07-26T15:22:32.715Z,100188.22
2022-07-26T15:25:00.301Z,100185.69
2022-07-26T15:27:27.850Z,100183.84
2022-07-26T15:30:03.420Z,100190.47
2022-07-26T15:32:33.853Z,100186.78
2022-07-26T15:35:01.331Z,100181.66
2022-07-26T15:37:28.926Z,100172.06
2022-07-26T15:39:56.253Z,100167.03
2022-07-26T15:42:23.571Z,100177.19
2022-07-26T15:44:52.212Z,100191.09
2022-07-26T15:47:52.504Z,100178.94
2022-07-26T15:50:12.723Z,100182.50
2022-07-26T15:52:44.648Z,100187.72
2022-07-26T15:55:14.346Z,100187.31
2022-07-26T15:57:41.712Z,100185.38
2022-07-26T16:00:10.949Z,100183.09
2022-07-26T16:02:40.515Z,100185.72
2022-07-26T16:05:09.442Z,100174.41
2022-07-26T16:07:37.488Z,100162.97
2022-07-26T16:10:05.411Z,100168.53
2022-07-26T16:12:33.150Z,100172.28
2022-07-26T16:15:00.813Z,100176.84
2022-07-26T16:17:28.273Z,100181.63
2022-07-26T16:19:55.592Z,100185.44
2022-07-26T16:22:23.155Z,100180.94
2022-07-26T16:24:50.814Z,100171.69
2022-07-26T16:27:18.186Z,100174.50
2022-07-26T16:29:50.263Z,100175.88
2022-07-26T16:32:21.092Z,100175.63
2022-07-26T16:34:48.803Z,100187.16
2022-07-26T16:37:16.278Z,100197.34
2022-07-26T16:39:43.692Z,100177.31
2022-07-26T16:42:11.030Z,100179.97
2022-07-26T16:44:38.746Z,100179.50
2022-07-26T16:47:06.265Z,100179.06
2022-07-26T16:49:36.644Z,100176.03
2022-07-26T16:52:04.815Z,100186.19
2022-07-26T16:54:36.448Z,100181.31
2022-07-26T16:57:06.676Z,100185.88
2022-07-26T16:59:34.378Z,100184.78
2022-07-26T17:02:02.816Z,100180.34
2022-07-26T17:04:30.589Z,100171.53
2022-07-26T17:07:23.423Z,100181.66
2022-07-26T17:09:45.358Z,100171.19
2022-07-26T17:12:12.671Z,100168.69
2022-07-26T17:14:40.120Z,100179.94
2022-07-26T17:17:07.471Z,100184.63
2022-07-26T17:19:34.889Z,100180.06
2022-07-26T17:22:02.237Z,100183.59
2022-07-26T17:24:29.705Z,100184.50
2022-07-26T17:26:57.336Z,100183.81
2022-07-26T17:29:24.713Z,100185.50
2022-07-26T17:31:52.851Z,100187.56
2022-07-26T17:34:20.349Z,100187.97
2022-07-26T17:36:47.719Z,100185.94
2022-07-26T17:39:17.088Z,100193.13
2022-07-26T17:41:49.044Z,100194.84
2022-07-26T17:44:16.671Z,100192.94
2022-07-26T17:46:44.169Z,100198.59
2022-07-26T17:49:13.083Z,100200.16
2022-07-26T17:51:41.651Z,100205.69
2022-07-26T17:54:09.358Z,100216.69
2022-07-26T17:56:36.691Z,100209.13
2022-07-26T17:59:04.096Z,100215.47
2022-07-26T18:01:31.516Z,100216.31
2022-07-26T18:04:01.458Z,100213.91
2022-07-26T18:06:28.905Z,100216.97
2022-07-26T18:08:56.506Z,100207.94
2022-07-26T18:11:23.818Z,100205.56
2022-07-26T18:13:51.134Z,100199.81
2022-07-26T18:16:18.794Z,100199.81
2022-07-26T18:18:46.170Z,100196.88
2022-07-26T18:21:15.065Z,100191.03
2022-07-26T18:24:00.381Z,100188.88
2022-07-26T18:26:29.736Z,100186.34
2022-07-26T18:28:57.131Z,100186.19
2022-07-26T18:31:24.966Z,100192.28
2022-07-26T18:33:52.335Z,100197.47
2022-07-26T18:36:19.648Z,100186.22
2022-07-26T18:38:46.995Z,100192.03
2022-07-26T18:41:14.459Z,100196.41
2022-07-26T18:43:43.468Z,100205.03
2022-07-26T18:46:10.873Z,100205.63
2022-07-26T18:48:41.665Z,100212.25
2022-07-26T18:51:12.056Z,100227.09
2022-07-26T18:53:39.698Z,100229.13
2022-07-26T18:56:08.915Z,100224.19
2022-07-26T18:58:37.406Z,100242.56
2022-07-26T19:01:09.505Z,100251.28
2022-07-26T19:03:37.067Z,100259.72
2022-07-26T19:06:05.245Z,100256.94
2022-07-26T19:08:32.580Z,100256.03
2022-07-26T19:10:59.911Z,100274.94
2022-07-26T19:13:27.270Z,100279.94
2022-07-26T19:15:54.676Z,100282.28
2022-07-26T19:18:22.117Z,100280.88
2022-07-26T19:20:49.523Z,100281.97
2022-07-26T19:23:19.537Z,100290.22
2022-07-26T19:25:47.255Z,100297.41
2022-07-26T19:28:15.088Z,100294.28
2022-07-26T19:30:43.110Z,100296.31
2022-07-26T19:33:10.497Z,100300.53
2022-07-26T19:35:37.819Z,100311.75
2022-07-26T19:38:05.333Z,100314.88
2022-07-26T19:40:32.640Z,100305.38
2022-07-26T19:43:00.002Z,100293.84
2022-07-26T19:45:29.620Z,100295.88
2022-07-26T19:47:56.979Z,100292.44
2022-07-26T19:50:24.363Z,100298.06
2022-07-26T19:52:51.670Z,100296.03
2022-07-26T19:55:19.206Z,100294.28
2022-07-26T19:57:46.550Z,100302.91
2022-07-26T20:00:14.676Z,100303.81
2022-07-26T20:02:42.101Z,100298.84
2022-07-26T20:05:10.823Z,100308.81
2022-07-26T20:07:38.867Z,100297.75
2022-07-26T20:10:07.227Z,100291.97
2022-07-26T20:12:35.487Z,100293.06
2022-07-26T20:15:02.931Z,100291.34
2022-07-26T20:17:35.387Z,100295.56
2022-07-26T20:20:05.760Z,100297.59
2022-07-26T20:22:33.314Z,100304.44
2022-07-26T20:25:00.737Z,100305.38
2022-07-26T20:27:28.896Z,100304.28
2022-07-26T20:30:00.760Z,100304.44
2022-07-26T20:32:28.558Z,100295.88
2022-07-26T20:34:55.899Z,100303.38
2022-07-26T20:37:23.279Z,100306.78
2022-07-26T20:39:51.394Z,100317.06
2022-07-26T20:42:21.656Z,100319.25
2022-07-26T20:44:49.440Z,100325.13
2022-07-26T20:47:16.760Z,100314.84
2022-07-26T20:49:44.766Z,100328.53
2022-07-26T20:52:12.065Z,100328.25
2022-07-26T20:54:39.368Z,100333.38
2022-07-26T20:57:06.759Z,100332.59
2022-07-26T20:59:35.059Z,100337.25
2022-07-26T21:02:02.499Z,100336.91
2022-07-26T21:04:30.639Z,100329.09
2022-07-26T21:06:58.967Z,100328.84
2022-07-26T21:09:27.377Z,100328.84
2022-07-26T21:11:54.752Z,100329.16
2022-07-26T21:14:22.240Z,100327.03
2022-07-26T21:16:49.670Z,100328.50
2022-07-26T21:19:17.112Z,100326.50
2022-07-26T21:21:46.792Z,100339.59
2022-07-26T21:24:14.258Z,100345.31
2022-07-26T21:26:41.606Z,100344.38
2022-07-26T21:29:09.193Z,100342.06
2022-07-26T21:31:36.969Z,100341.13
2022-07-26T21:34:04.855Z,100358.56
2022-07-26T21:36:32.998Z,100350.31
2022-07-26T21:39:00.282Z,100351.59
2022-07-26T21:41:27.661Z,100342.56
2022-07-26T21:43:55.006Z,100343.94
2022-07-26T21:46:23.048Z,100347.91
2022-07-26T21:48:50.937Z,100346.53
2022-07-26T21:51:19.048Z,100355.56
2022-07-26T21:53:47.148Z,100344.66
2022-07-26T21:56:14.775Z,100341.19
2022-07-26T21:58:42.317Z,100349.94
2022-07-26T22:01:12.512Z,100352.06
2022-07-26T22:03:41.847Z,100350.47
2022-07-26T22:06:09.975Z,100350.47
2022-07-26T22:08:37.499Z,100353.09
2022-07-26T22:11:05.484Z,100368.81
2022-07-26T22:13:32.866Z,100378.81
2022-07-26T22:16:00.337Z,100372.50
2022-07-26T22:18:27.986Z,100380.19
2022-07-26T22:20:55.931Z,100389.56
2022-07-26T22:23:29.805Z,100387.97
2022-07-26T22:26:02.137Z,100387.22
2022-07-26T22:28:31.116Z,100393.22
2022-07-26T22:30:59.663Z,100385.31
2022-07-26T22:33:28.906Z,100388.13
2022-07-26T22:35:56.693Z,100395.00
2022-07-26T22:38:24.557Z,100393.09
2022-07-26T22:40:52.471Z,100399.75
2022-07-26T22:43:20.515Z,100408.66
2022-07-26T22:45:49.115Z,100411.34
2022-07-26T22:48:16.709Z,100414.47
2022-07-26T22:50:44.301Z,100412.91
2022-07-26T22:53:11.684Z,100401.22
2022-07-26T22:55:39.188Z,100383.31
2022-07-26T22:58:06.500Z,100387.06
2022-07-26T23:00:33.982Z,100384.50
2022-07-26T23:03:01.498Z,100386.63
2022-07-26T23:05:36.052Z,100384.38
2022-07-26T23:08:43.799Z,100392.63
2022-07-26T23:11:00.583Z,100394.81
2022-07-26T23:13:27.881Z,100389.19
2022-07-26T23:16:00.540Z,100392.63
2022-07-26T23:18:29.506Z,100404.31
2022-07-26T23:20:57.925Z,100404.22
2022-07-26T23:23:29.863Z,100407.50
2022-07-26T23:26:00.500Z,100408.38
2022-07-26T23:28:37.187Z,100405.44
2022-07-26T23:31:11.144Z,100403.06
2022-07-26T23:33:52.292Z,100402.50
2022-07-26T23:36:25.893Z,100423.03
2022-07-26T23:38:54.867Z,100418.34
2022-07-26T23:41:22.775Z,100412.69
2022-07-26T23:43:50.415Z,100415.78
2022-07-26T23:46:18.214Z,100409.63
2022-07-26T23:48:46.016Z,100412.84
2022-07-26T23:51:13.474Z,100427.72
2022-07-26T23:53:41.298Z,100432.97
2022-07-26T23:56:08.797Z,100441.97
2022-07-26T23:58:36.852Z,100434.69
